Bryant, AL

1:38 PM CDT on September 01, 2015 (GMT -0500)
New Home | | Change Station
CLOSE
Current Station
Personal Weather Station
Location: Trenton, GA
Elevation: 1470 ft
Nearby Weather Stations

Elev 1470 ft 34.98 °N, 85.51 °W | Updated 11 minutes ago

Partly Cloudy
Partly Cloudy
86.8 °F
Feels Like 94 °F
N
0.0
Wind Variable Wind from SSE
Gusts 4.0 mph

Today
High -- | Low -- °F
--% Chance of Precip.
Yesterday
High -- | Low -- °F
Precip. -- in
6:15 AM 7:09 PM
Waning Gibbous, 87% visible
Pressure 30.10 in
Visibility 10.0 miles
Clouds Scattered Clouds 4500 ft
Mostly Cloudy 30000 ft
Heat Index 94 °F
Dew Point 73 °F
Humidity 64%
Rainfall 0.00 in
Snow Depth Not available.
UV 6 out of 12
Pollen 8.90 out of 12
Air Quality Not available.
Flu Activity Not available.
METAR KCHA 011753Z VRB04KT 10SM SCT045 BKN300 30/19 A3012 RMK AO2 SLP191 T03000189 10311 20200 56015
Pressure 30.10 in
Visibility 10.0 miles
Clouds Scattered Clouds 4500 ft
Mostly Cloudy 30000 ft
Heat Index 94 °F
Dew Point 73 °F
Humidity 64%
Rainfall 0.00 in
Snow Depth Not available.
UV 6 out of 12
Pollen 8.90 out of 12
Air Quality Not available.
Flu Activity Not available.
METAR KCHA 011753Z VRB04KT 10SM SCT045 BKN300 30/19 A3012 RMK AO2 SLP191 T03000189 10311 20200 56015

10-Day Weather Forecast

×

Almanac

Astronomy

Sep. 01, 2015 Rise Set
Actual Time
Civil Twilight
Nautical Twilight
Astronomical Twilight
Moon
Length of Visible Light
Length of Day
Tomorrow will be .
, % of the Moon is Illuminated

Today's Extremes

State Highs State Lows

Community

WunderPhotos

Upload Photos

1,851,593 photos uploaded!

WunderBlogs® & News

Nearby

Air Quality

  Air Quality AQ Index Pollutant
Not available.

Snow Depth

Station Depth Elevation

Earthquake Activity

City Distance Mag. Time & Date
Minimum magnitude displayed is 2.5.

Coastal Water Temperatures

Place Temperature

Stations

Nearby Weather Stations

Station Location Temp. Windchill Dew Point Humidity Wind Precip. Elev Updated Type